createdAt,value
2023-03-02T00:00:18.048Z,0.40
2023-03-02T00:02:48.305Z,0.40
2023-03-02T00:05:18.415Z,0.40
2023-03-02T00:07:50.425Z,0.30
2023-03-02T00:10:20.766Z,0.30
2023-03-02T00:12:51.001Z,0.30
2023-03-02T00:15:21.311Z,0.30
2023-03-02T00:17:51.394Z,0.30
2023-03-02T00:20:21.464Z,0.30
2023-03-02T00:22:53.225Z,0.30
2023-03-02T00:25:23.546Z,0.20
2023-03-02T00:27:53.736Z,0.20
2023-03-02T00:30:24.005Z,0.20
2023-03-02T00:32:54.073Z,0.10
2023-03-02T00:35:24.181Z,0.10
2023-03-02T00:37:55.971Z,0.10
2023-03-02T00:40:26.026Z,0.00
2023-03-02T00:42:56.138Z,0.00
2023-03-02T00:45:26.787Z,0.00
2023-03-02T00:47:56.886Z,-0.10
2023-03-02T00:50:27.020Z,-0.10
2023-03-02T00:52:58.713Z,-0.10
2023-03-02T00:55:28.852Z,0.00
2023-03-02T00:57:58.948Z,0.00
2023-03-02T01:00:29.769Z,-0.10
2023-03-02T01:03:00.228Z,0.00
2023-03-02T01:05:30.946Z,-0.10
2023-03-02T01:08:02.760Z,-0.10
2023-03-02T01:10:34.548Z,-0.10
2023-03-02T01:13:04.745Z,-0.20
2023-03-02T01:15:36.011Z,-0.20
2023-03-02T01:18:06.175Z,-0.30
2023-03-02T01:20:36.226Z,-0.30
2023-03-02T01:23:08.378Z,-0.40
2023-03-02T01:25:39.689Z,-0.40
2023-03-02T01:28:10.442Z,-0.40
2023-03-02T01:30:41.234Z,-0.40
2023-03-02T01:33:11.857Z,-0.40
2023-03-02T01:35:42.286Z,-0.40
2023-03-02T01:38:14.523Z,-0.40
2023-03-02T01:40:45.079Z,-0.30
2023-03-02T01:43:18.093Z,-0.30
2023-03-02T01:45:55.640Z,-0.30
2023-03-02T01:48:33.867Z,-0.30
2023-03-02T01:51:05.084Z,-0.20
2023-03-02T01:53:38.368Z,-0.20
2023-03-02T01:56:09.354Z,-0.20
2023-03-02T01:58:40.750Z,-0.20
2023-03-02T02:01:16.041Z,-0.20
2023-03-02T02:03:48.149Z,-0.20
2023-03-02T02:06:26.070Z,-0.20
2023-03-02T02:09:00.320Z,-0.20
2023-03-02T02:11:31.903Z,-0.20
2023-03-02T02:14:04.784Z,-0.20
2023-03-02T02:16:37.656Z,-0.30
2023-03-02T02:19:20.567Z,-0.30
2023-03-02T02:21:51.118Z,-0.40
2023-03-02T02:24:31.349Z,-0.50
2023-03-02T02:27:03.634Z,-0.60
2023-03-02T02:29:37.099Z,-0.60
2023-03-02T02:32:15.257Z,-0.70
2023-03-02T02:34:49.813Z,-0.70
2023-03-02T02:37:24.618Z,-0.60
2023-03-02T02:39:55.003Z,-0.60
2023-03-02T02:42:31.887Z,-0.60
2023-03-02T02:45:05.703Z,-0.50
2023-03-02T02:47:37.114Z,-0.60
2023-03-02T02:50:08.425Z,-0.60
2023-03-02T02:52:40.350Z,-0.60
2023-03-02T02:55:18.605Z,-0.70
2023-03-02T02:57:51.606Z,-0.70
2023-03-02T03:00:23.954Z,-0.80
2023-03-02T03:02:59.949Z,-1.00
2023-03-02T03:05:30.312Z,-1.20
2023-03-02T03:08:11.057Z,-1.20
2023-03-02T03:10:44.384Z,-1.30
2023-03-02T03:13:16.094Z,-1.40
2023-03-02T03:15:46.413Z,-1.40
2023-03-02T03:18:16.917Z,-1.30
2023-03-02T03:20:47.106Z,-1.10
2023-03-02T03:23:17.226Z,-1.00
2023-03-02T03:25:47.423Z,-0.90
2023-03-02T03:28:19.407Z,-0.80
2023-03-02T03:30:49.764Z,-0.80
2023-03-02T03:33:19.941Z,-0.80
2023-03-02T03:35:50.032Z,-0.70
2023-03-02T03:38:20.539Z,-0.70
2023-03-02T03:40:51.089Z,-0.70
2023-03-02T03:43:22.808Z,-0.60
2023-03-02T03:45:53.424Z,-0.60
2023-03-02T03:48:23.876Z,-0.60
2023-03-02T03:50:54.136Z,-0.60
2023-03-02T03:53:24.565Z,-0.60
2023-03-02T03:55:54.955Z,-0.60
2023-03-02T03:58:26.897Z,-0.60
2023-03-02T04:00:57.220Z,-0.50
2023-03-02T04:03:28.072Z,-0.50
2023-03-02T04:05:58.184Z,-0.50
2023-03-02T04:08:28.280Z,-0.40
2023-03-02T04:10:58.477Z,-0.40
2023-03-02T04:13:30.256Z,-0.40
2023-03-02T04:16:00.781Z,-0.40
2023-03-02T04:18:30.892Z,-0.40
2023-03-02T04:21:01.105Z,-0.40
2023-03-02T04:23:31.189Z,-0.40
2023-03-02T04:26:05.706Z,-0.40
2023-03-02T04:28:37.535Z,-0.30
2023-03-02T04:31:08.089Z,-0.40
2023-03-02T04:33:39.717Z,-0.40
2023-03-02T04:36:10.563Z,-0.40
2023-03-02T04:38:40.648Z,-0.30
2023-03-02T04:41:10.718Z,-0.40
2023-03-02T04:43:42.531Z,-0.40
2023-03-02T04:46:17.279Z,-0.40
2023-03-02T04:48:47.703Z,-0.40
2023-03-02T04:51:24.622Z,-0.40
2023-03-02T04:53:55.339Z,-0.40
2023-03-02T04:56:25.686Z,-0.40
2023-03-02T04:58:59.234Z,-0.40
2023-03-02T05:01:29.975Z,-0.30
2023-03-02T05:04:02.457Z,-0.40
2023-03-02T05:06:33.236Z,-0.40
2023-03-02T05:09:03.523Z,-0.40
2023-03-02T05:11:33.953Z,-0.40
2023-03-02T05:14:08.767Z,-0.40
2023-03-02T05:16:41.153Z,-0.40
2023-03-02T05:19:13.140Z,-0.40
2023-03-02T05:21:43.550Z,-0.40
2023-03-02T05:24:14.751Z,-0.40
2023-03-02T05:26:45.104Z,-0.40
2023-03-02T05:29:16.799Z,-0.40
2023-03-02T05:31:47.966Z,-0.40
2023-03-02T05:34:19.702Z,-0.40
2023-03-02T05:36:50.044Z,-0.40
2023-03-02T05:39:20.108Z,-0.40
2023-03-02T05:41:50.546Z,-0.40
2023-03-02T05:44:22.362Z,-0.40
2023-03-02T05:46:52.748Z,-0.40
2023-03-02T05:49:23.102Z,-0.40
2023-03-02T05:51:53.396Z,-0.40
2023-03-02T05:54:23.855Z,-0.40
2023-03-02T05:56:54.113Z,-0.50
2023-03-02T05:59:25.740Z,-0.40
2023-03-02T06:01:59.396Z,-0.50
2023-03-02T06:04:29.516Z,-0.50
2023-03-02T06:06:59.859Z,-0.40
2023-03-02T06:09:29.994Z,-0.40
2023-03-02T06:12:00.335Z,-0.40
2023-03-02T06:14:32.315Z,-0.40
2023-03-02T06:17:02.729Z,-0.40
2023-03-02T06:19:32.848Z,-0.40
2023-03-02T06:22:02.939Z,-0.40
2023-03-02T06:24:32.978Z,-0.40
2023-03-02T06:27:03.206Z,-0.40
2023-03-02T06:29:35.318Z,-0.40
2023-03-02T06:32:05.859Z,-0.40
2023-03-02T06:34:36.944Z,-0.30
2023-03-02T06:37:07.080Z,-0.30
2023-03-02T06:39:37.132Z,-0.30
2023-03-02T06:42:07.556Z,-0.30
2023-03-02T06:44:39.179Z,-0.30
2023-03-02T06:47:09.744Z,-0.30
2023-03-02T06:49:39.991Z,-0.30
2023-03-02T06:52:11.603Z,-0.30
2023-03-02T06:54:41.985Z,-0.30
2023-03-02T06:57:12.104Z,-0.40
2023-03-02T06:59:43.832Z,-0.40
2023-03-02T07:02:14.647Z,-0.40
2023-03-02T07:04:44.842Z,-0.40
2023-03-02T07:07:14.905Z,-0.40
2023-03-02T07:09:45.066Z,-0.40
2023-03-02T07:12:15.118Z,-0.40
2023-03-02T07:14:46.754Z,-0.40
2023-03-02T07:17:17.295Z,-0.40
2023-03-02T07:19:47.900Z,-0.40
2023-03-02T07:22:18.147Z,-0.40
2023-03-02T07:24:48.246Z,-0.40
2023-03-02T07:27:18.353Z,-0.40
2023-03-02T07:29:50.416Z,-0.40
2023-03-02T07:32:20.631Z,-0.40
2023-03-02T07:34:50.719Z,-0.40
2023-03-02T07:37:20.818Z,-0.40
2023-03-02T07:39:51.389Z,-0.40
2023-03-02T07:42:21.732Z,-0.40
2023-03-02T07:44:56.276Z,-0.40
2023-03-02T07:47:27.479Z,-0.40
2023-03-02T07:49:58.245Z,-0.40
2023-03-02T07:52:28.720Z,-0.40
2023-03-02T07:54:58.885Z,-0.40
2023-03-02T07:57:29.190Z,-0.40
2023-03-02T08:00:01.087Z,-0.40
2023-03-02T08:02:31.692Z,-0.40
2023-03-02T08:05:01.986Z,-0.40
2023-03-02T08:07:32.113Z,-0.40
2023-03-02T08:10:02.418Z,-0.40
2023-03-02T08:12:32.757Z,-0.40
2023-03-02T08:15:05.069Z,-0.40
2023-03-02T08:17:35.437Z,-0.30
2023-03-02T08:20:06.732Z,-0.40
2023-03-02T08:22:37.145Z,-0.40
2023-03-02T08:25:08.273Z,-0.40
2023-03-02T08:27:38.986Z,-0.40
2023-03-02T08:30:13.183Z,-0.40
2023-03-02T08:32:43.964Z,-0.40
2023-03-02T08:35:14.924Z,-0.40
2023-03-02T08:37:45.428Z,-0.40
2023-03-02T08:40:16.379Z,-0.40
2023-03-02T08:42:46.525Z,-0.40
2023-03-02T08:45:20.104Z,-0.40
2023-03-02T08:47:50.642Z,-0.40
2023-03-02T08:50:20.893Z,-0.40
2023-03-02T08:52:50.940Z,-0.40
2023-03-02T08:55:21.219Z,-0.40
2023-03-02T08:57:51.291Z,-0.40
2023-03-02T09:00:23.787Z,-0.40
2023-03-02T09:02:53.884Z,-0.40
2023-03-02T09:05:23.910Z,-0.40
2023-03-02T09:07:54.006Z,-0.40
2023-03-02T09:10:24.105Z,-0.40
2023-03-02T09:12:54.183Z,-0.40
2023-03-02T09:15:25.904Z,-0.40
2023-03-02T09:17:56.525Z,-0.50
2023-03-02T09:20:26.654Z,-0.50
2023-03-02T09:22:56.780Z,-0.50
2023-03-02T09:25:26.974Z,-0.50
2023-03-02T09:27:57.240Z,-0.60
2023-03-02T09:30:29.238Z,-0.60
2023-03-02T09:32:59.819Z,-0.70
2023-03-02T09:35:30.047Z,-0.70
2023-03-02T09:38:00.195Z,-0.70
2023-03-02T09:40:31.501Z,-0.70
2023-03-02T09:43:17.363Z,-0.70
2023-03-02T09:46:12.673Z,-0.70
2023-03-02T09:48:51.908Z,-0.70
2023-03-02T09:51:35.501Z,-0.70
2023-03-02T09:54:11.900Z,-0.70
2023-03-02T09:56:47.149Z,-0.70
2023-03-02T09:59:25.288Z,-0.70
2023-03-02T10:02:04.126Z,-0.70
2023-03-02T10:04:40.576Z,-0.70
2023-03-02T10:07:16.595Z,-0.70
2023-03-02T10:09:47.080Z,-0.70
2023-03-02T10:12:39.105Z,-0.70
2023-03-02T10:15:15.546Z,-0.70
2023-03-02T10:17:57.378Z,-0.80
2023-03-02T10:20:35.861Z,-0.70
2023-03-02T10:23:17.682Z,-0.70
2023-03-02T10:25:52.304Z,-0.70
2023-03-02T10:28:24.780Z,-0.70
2023-03-02T10:31:00.172Z,-0.70
2023-03-02T10:33:34.277Z,-0.70
2023-03-02T10:36:05.789Z,-0.70
2023-03-02T10:38:37.726Z,-0.70
2023-03-02T10:41:12.367Z,-0.70
2023-03-02T10:43:46.974Z,-0.70
2023-03-02T10:46:17.480Z,-0.70
2023-03-02T10:48:54.123Z,-0.70
2023-03-02T10:51:29.818Z,-0.70
2023-03-02T10:54:11.397Z,-0.70
2023-03-02T10:56:44.387Z,-0.70
2023-03-02T10:59:37.432Z,-0.70
2023-03-02T11:02:17.247Z,-0.70
2023-03-02T11:04:48.957Z,-0.70
2023-03-02T11:07:21.367Z,-0.70
2023-03-02T11:10:02.567Z,-0.60
2023-03-02T11:12:33.600Z,-0.70
2023-03-02T11:15:25.919Z,-0.70
2023-03-02T11:18:04.290Z,-0.60
2023-03-02T11:20:40.374Z,-0.60
2023-03-02T11:23:23.539Z,-0.70
2023-03-02T11:25:57.453Z,-0.60
2023-03-02T11:28:43.114Z,-0.60
2023-03-02T11:31:23.756Z,-0.60
2023-03-02T11:34:17.902Z,-0.60
2023-03-02T11:36:59.963Z,-0.60
2023-03-02T11:39:49.989Z,-0.60
2023-03-02T11:42:28.992Z,-0.60
2023-03-02T11:44:59.317Z,-0.60
2023-03-02T11:47:30.643Z,-0.60
2023-03-02T11:50:07.263Z,-0.60
2023-03-02T11:52:44.332Z,-0.60
2023-03-02T11:55:20.595Z,-0.60
2023-03-02T11:57:54.370Z,-0.60
2023-03-02T12:00:33.884Z,-0.60
2023-03-02T12:03:06.219Z,-0.60
2023-03-02T12:05:40.991Z,-0.60
2023-03-02T12:08:37.586Z,-0.60
2023-03-02T12:11:10.347Z,-0.60
2023-03-02T12:13:42.103Z,-0.50
2023-03-02T12:16:23.509Z,-0.50
2023-03-02T12:18:54.437Z,-0.50
2023-03-02T12:21:26.307Z,-0.40
2023-03-02T12:24:01.556Z,-0.40
2023-03-02T12:26:36.131Z,-0.30
2023-03-02T12:29:23.759Z,-0.20
2023-03-02T12:31:56.130Z,-0.20
2023-03-02T12:34:45.519Z,-0.20
2023-03-02T12:37:19.836Z,-0.20
2023-03-02T12:40:21.391Z,-0.20
2023-03-02T12:43:03.076Z,-0.20
2023-03-02T12:45:50.004Z,-0.20
2023-03-02T12:48:29.725Z,-0.20
2023-03-02T12:51:03.396Z,-0.20
2023-03-02T12:53:33.814Z,-0.20
2023-03-02T12:56:05.552Z,-0.30
2023-03-02T12:58:35.829Z,-0.20
2023-03-02T13:01:07.283Z,-0.10
2023-03-02T13:03:47.675Z,0.00
2023-03-02T13:06:20.688Z,0.10
2023-03-02T13:08:53.823Z,0.30
2023-03-02T13:11:31.584Z,0.40
2023-03-02T13:14:02.079Z,0.50
2023-03-02T13:16:34.080Z,0.60
2023-03-02T13:19:08.175Z,0.70
2023-03-02T13:21:41.120Z,0.90
2023-03-02T13:24:36.638Z,0.90
2023-03-02T13:27:18.795Z,1.00
2023-03-02T13:29:49.389Z,1.00
2023-03-02T13:32:22.343Z,1.10
2023-03-02T13:34:54.683Z,1.10
2023-03-02T13:37:38.232Z,1.10
2023-03-02T13:40:31.143Z,1.20
2023-03-02T13:43:03.179Z,1.10
2023-03-02T13:45:34.727Z,1.20
2023-03-02T13:48:16.645Z,1.10
2023-03-02T13:50:55.736Z,1.20
2023-03-02T13:53:26.286Z,1.20
2023-03-02T13:55:57.159Z,1.30
2023-03-02T13:58:30.593Z,1.40
2023-03-02T14:01:00.747Z,1.50
2023-03-02T14:03:32.903Z,1.70
2023-03-02T14:06:03.374Z,1.70
2023-03-02T14:08:33.449Z,1.80
2023-03-02T14:11:05.139Z,1.80
2023-03-02T14:13:42.596Z,1.60
2023-03-02T14:16:15.346Z,1.50
2023-03-02T14:18:48.439Z,1.50
2023-03-02T14:21:21.549Z,1.40
2023-03-02T14:23:53.194Z,1.30
2023-03-02T14:26:35.663Z,1.40
2023-03-02T14:29:22.354Z,1.40
2023-03-02T14:31:53.190Z,1.40
2023-03-02T14:34:23.620Z,1.50
2023-03-02T14:36:56.947Z,1.80
2023-03-02T14:39:37.197Z,2.10
2023-03-02T14:42:08.034Z,2.40
2023-03-02T14:44:39.669Z,2.70
2023-03-02T14:47:10.989Z,2.80
2023-03-02T14:49:41.531Z,2.90
2023-03-02T14:52:16.634Z,2.80
2023-03-02T14:54:51.870Z,2.80
2023-03-02T14:57:24.500Z,2.80
2023-03-02T14:59:56.775Z,2.90
2023-03-02T15:02:27.920Z,2.70
2023-03-02T15:04:58.482Z,2.70
2023-03-02T15:07:29.742Z,3.00
2023-03-02T15:10:00.337Z,3.30
2023-03-02T15:12:30.651Z,3.30
2023-03-02T15:15:02.751Z,3.30
2023-03-02T15:17:33.754Z,3.20
2023-03-02T15:20:03.794Z,3.20
2023-03-02T15:22:34.355Z,3.20
2023-03-02T15:25:04.388Z,3.20
2023-03-02T15:27:34.522Z,3.10
2023-03-02T15:30:06.583Z,3.20
2023-03-02T15:32:39.195Z,3.30
2023-03-02T15:35:10.518Z,3.30
2023-03-02T15:37:41.232Z,3.20
2023-03-02T15:40:12.776Z,3.20
2023-03-02T15:42:43.605Z,3.10
2023-03-02T15:45:15.637Z,3.00
2023-03-02T15:47:46.325Z,2.90
2023-03-02T15:50:16.558Z,2.80
2023-03-02T15:52:46.764Z,2.70
2023-03-02T15:55:16.815Z,2.80
2023-03-02T15:57:47.003Z,3.00
2023-03-02T16:00:20.529Z,3.10
2023-03-02T16:02:51.649Z,3.10
2023-03-02T16:05:21.788Z,3.00
2023-03-02T16:07:51.947Z,3.20
2023-03-02T16:10:23.937Z,3.40
2023-03-02T16:12:54.127Z,3.60
2023-03-02T16:15:25.909Z,3.50
2023-03-02T16:17:57.153Z,3.30
2023-03-02T16:20:27.889Z,3.20
2023-03-02T16:22:58.374Z,3.10
2023-03-02T16:25:29.513Z,3.20
2023-03-02T16:27:59.842Z,3.20
2023-03-02T16:30:34.308Z,3.20
2023-03-02T16:33:06.950Z,3.10
2023-03-02T16:35:39.999Z,3.20
2023-03-02T16:38:10.532Z,3.20
2023-03-02T16:40:41.438Z,3.10
2023-03-02T16:43:11.725Z,3.30
2023-03-02T16:45:43.821Z,3.40
2023-03-02T16:48:14.682Z,3.60
2023-03-02T16:50:44.680Z,3.50
2023-03-02T16:53:15.621Z,3.60
2023-03-02T16:55:45.709Z,3.50
2023-03-02T16:58:16.029Z,3.70
2023-03-02T17:00:48.130Z,4.00
2023-03-02T17:03:18.700Z,4.10
2023-03-02T17:05:48.812Z,4.30
2023-03-02T17:08:19.714Z,4.40
2023-03-02T17:10:49.836Z,4.30
2023-03-02T17:13:21.235Z,4.30
2023-03-02T17:15:58.068Z,4.10
2023-03-02T17:18:29.542Z,4.10
2023-03-02T17:21:01.366Z,4.10
2023-03-02T17:23:33.470Z,4.10
2023-03-02T17:26:03.525Z,4.20
2023-03-02T17:28:34.084Z,4.30
2023-03-02T17:31:05.859Z,4.20
2023-03-02T17:33:36.074Z,4.30
2023-03-02T17:36:09.144Z,4.80
2023-03-02T17:38:40.034Z,5.00
2023-03-02T17:41:11.641Z,5.20
2023-03-02T17:43:44.806Z,5.00
2023-03-02T17:46:20.836Z,4.90
2023-03-02T17:48:54.209Z,4.90
2023-03-02T17:51:25.031Z,4.80
2023-03-02T17:53:56.977Z,4.70
2023-03-02T17:56:28.826Z,4.60
2023-03-02T17:59:00.569Z,4.60
2023-03-02T18:01:33.673Z,4.60
2023-03-02T18:04:04.111Z,4.70
2023-03-02T18:06:34.445Z,4.80
2023-03-02T18:09:04.807Z,4.80
2023-03-02T18:11:35.435Z,4.70
2023-03-02T18:14:05.897Z,4.70
2023-03-02T18:16:37.588Z,4.60
2023-03-02T18:19:07.745Z,4.60
2023-03-02T18:21:39.234Z,4.70
2023-03-02T18:24:10.754Z,4.50
2023-03-02T18:26:40.878Z,4.70
2023-03-02T18:29:11.071Z,4.80
2023-03-02T18:31:42.822Z,4.90
2023-03-02T18:34:13.695Z,5.40
2023-03-02T18:36:45.013Z,5.50
2023-03-02T18:39:15.619Z,5.60
2023-03-02T18:41:46.153Z,5.70
2023-03-02T18:44:16.355Z,5.70
2023-03-02T18:46:48.496Z,5.50
2023-03-02T18:49:18.656Z,5.40
2023-03-02T18:51:49.630Z,5.00
2023-03-02T18:54:19.877Z,4.80
2023-03-02T18:56:50.053Z,4.60
2023-03-02T18:59:20.444Z,4.50
2023-03-02T19:01:52.351Z,4.40
2023-03-02T19:04:24.286Z,4.30
2023-03-02T19:06:54.739Z,4.40
2023-03-02T19:09:25.131Z,4.30
2023-03-02T19:11:55.711Z,4.20
2023-03-02T19:14:26.002Z,4.40
2023-03-02T19:16:57.659Z,4.50
2023-03-02T19:19:27.876Z,4.50
2023-03-02T19:21:58.542Z,4.50
2023-03-02T19:24:28.722Z,4.50
2023-03-02T19:26:58.778Z,4.40
2023-03-02T19:29:29.339Z,4.30
2023-03-02T19:32:01.003Z,4.50
2023-03-02T19:34:31.313Z,4.90
2023-03-02T19:37:01.437Z,5.20
2023-03-02T19:39:31.693Z,5.20
2023-03-02T19:42:02.023Z,5.00
2023-03-02T19:44:32.455Z,4.80
2023-03-02T19:47:04.838Z,4.60
2023-03-02T19:49:34.964Z,4.50
2023-03-02T19:52:05.300Z,4.50
2023-03-02T19:54:35.386Z,4.70
2023-03-02T19:57:05.455Z,4.90
2023-03-02T19:59:37.233Z,5.10
2023-03-02T20:02:09.458Z,5.30
2023-03-02T20:04:39.785Z,5.40
2023-03-02T20:07:09.927Z,5.60
2023-03-02T20:09:40.018Z,5.90
2023-03-02T20:12:11.496Z,6.10
2023-03-02T20:14:43.892Z,6.20
2023-03-02T20:17:16.426Z,6.30
2023-03-02T20:19:46.602Z,6.40
2023-03-02T20:22:17.244Z,6.50
2023-03-02T20:24:47.357Z,6.70
2023-03-02T20:27:17.694Z,7.20
2023-03-02T20:29:47.921Z,7.20
2023-03-02T20:32:19.713Z,7.20
2023-03-02T20:34:50.233Z,7.20
2023-03-02T20:37:20.395Z,7.00
2023-03-02T20:39:50.552Z,6.30
2023-03-02T20:42:20.805Z,5.80
2023-03-02T20:44:51.040Z,5.40
2023-03-02T20:47:23.157Z,5.10
2023-03-02T20:49:53.318Z,4.70
2023-03-02T20:52:23.565Z,4.40
2023-03-02T20:54:53.655Z,4.00
2023-03-02T20:57:24.487Z,3.90
2023-03-02T20:59:54.648Z,3.90
2023-03-02T21:02:26.613Z,4.00
2023-03-02T21:04:56.958Z,4.30
2023-03-02T21:07:27.115Z,4.40
2023-03-02T21:09:57.589Z,4.50
2023-03-02T21:12:27.703Z,4.60
2023-03-02T21:14:58.244Z,4.50
2023-03-02T21:17:31.229Z,4.50
2023-03-02T21:20:01.517Z,4.30
2023-03-02T21:22:31.687Z,4.30
2023-03-02T21:25:01.821Z,4.30
2023-03-02T21:27:31.893Z,4.10
2023-03-02T21:30:04.091Z,4.00
2023-03-02T21:32:35.806Z,4.00
2023-03-02T21:35:05.993Z,3.90
2023-03-02T21:37:36.106Z,3.80
2023-03-02T21:40:07.254Z,3.90
2023-03-02T21:42:37.723Z,3.90
2023-03-02T21:45:09.608Z,3.80
2023-03-02T21:47:41.977Z,3.90
2023-03-02T21:50:15.369Z,3.90
2023-03-02T21:52:45.778Z,4.00
2023-03-02T21:55:22.264Z,4.10
2023-03-02T21:57:52.320Z,4.10
2023-03-02T22:00:24.319Z,4.00
2023-03-02T22:02:56.004Z,3.70
2023-03-02T22:05:26.130Z,3.40
2023-03-02T22:07:56.672Z,3.20
2023-03-02T22:10:32.549Z,3.10
2023-03-02T22:13:18.017Z,3.00
2023-03-02T22:15:49.264Z,2.90
2023-03-02T22:18:23.249Z,2.80
2023-03-02T22:20:54.131Z,2.60
2023-03-02T22:23:28.041Z,2.40
2023-03-02T22:26:03.340Z,2.20
2023-03-02T22:28:34.929Z,2.00
2023-03-02T22:31:05.586Z,1.90
2023-03-02T22:33:39.052Z,1.80
2023-03-02T22:36:17.704Z,1.60
2023-03-02T22:38:47.864Z,1.60
2023-03-02T22:41:18.968Z,1.50
2023-03-02T22:43:50.071Z,1.50
2023-03-02T22:46:23.082Z,1.40
2023-03-02T22:48:55.802Z,1.30
2023-03-02T22:51:30.260Z,1.20
2023-03-02T22:54:01.784Z,1.20
2023-03-02T22:56:34.088Z,1.10
2023-03-02T22:59:09.270Z,1.00
2023-03-02T23:01:44.186Z,1.00
2023-03-02T23:04:25.097Z,0.90
2023-03-02T23:06:56.050Z,0.80
2023-03-02T23:09:29.742Z,0.80
2023-03-02T23:12:01.927Z,0.80
2023-03-02T23:14:39.312Z,0.70
2023-03-02T23:17:17.851Z,0.70
2023-03-02T23:19:50.182Z,0.60
2023-03-02T23:22:22.623Z,0.50
2023-03-02T23:24:59.803Z,0.50
2023-03-02T23:27:31.185Z,0.40
2023-03-02T23:30:02.755Z,0.40
2023-03-02T23:32:33.620Z,0.40
2023-03-02T23:35:05.992Z,0.30
2023-03-02T23:37:38.065Z,0.40
2023-03-02T23:40:09.646Z,0.40
2023-03-02T23:42:39.855Z,0.40
2023-03-02T23:45:11.870Z,0.40
2023-03-02T23:47:42.352Z,0.40
2023-03-02T23:50:16.256Z,0.40
2023-03-02T23:52:47.410Z,0.40
2023-03-02T23:55:17.616Z,0.40
2023-03-02T23:57:48.042Z,0.40
